Aérodrome :







RETROUVEZ-NOUS SUR...

 
LOGIN :

S'inscrire | Disclaimer

   EN    FR    IT 

 









Légende :    VFR   VFR Marginal   IFR   IFR Intensif   IFR Très Intensif
Visi : 
Plafond : 
>= 8 km
>= 3000ft
5 à 8 km
1000 à 3000 ft
1500m à 5 km
500 à 1000 ft
800 à 1500m
200 à 500 ft
< 800m
< 200 ft
Symboles :   Orages  Brouillard  Fortes neiges  Fortes précipitations  Vent > 20 kt






- Altitude de l'aérodrome : 180 ft
- Code IATA : YZV


CYZV - Sept-Iles

DERNIER METAR :
  • 180900Z 30006KT 15SM SKC M24/M30 A3036 RMK SLP288

METARs EXPIRÉS :
  • 180800Z 28005KT 15SM SKC M24/M30 A3036 RMK SLP291
  • 180700Z 30008KT 15SM SKC M24/M30 A3035 RMK SLP285

TAF TAF CYZV
Valide du 18 à 06h jusqu'au 19 à 06h UTC


180538Z 1806/1906 34012G22KT P6SM SKC
BECMG 1808/1810 30008KT
BECMG 1901/1903 02007KT RMK NXT FCST BY 181200Z



MET'MAP, la Météo Aéronautique d'un coup d'oeil ! - Copyright ORBIFLY Décembre 2007 - Disclaimer

ORBIFLY MET'MAP TEAM :

Programmation & Développement : Alexandra Zaïnal
Sur une idée originale de : Baudouin d'Aumeries
Assistance à la programmation : Marc-Olivier Méhu
Soutien technique & logistique : Manuel Goepfert

Contact : metmap@orbifly.com




SOURCES & CREDITS :

   NOAA